createdAt,value
2024-05-09T00:01:53.276Z,101136.72
2024-05-09T00:04:23.741Z,101130.47
2024-05-09T00:06:54.116Z,101133.88
2024-05-09T00:09:24.210Z,101138.22
2024-05-09T00:11:57.184Z,101140.81
2024-05-09T00:14:28.458Z,101140.63
2024-05-09T00:16:59.389Z,101134.50
2024-05-09T00:19:30.089Z,101133.56
2024-05-09T00:22:00.434Z,101132.59
2024-05-09T00:24:30.588Z,101136.03
2024-05-09T00:27:03.941Z,101137.72
2024-05-09T00:29:34.111Z,101141.97
2024-05-09T00:32:04.419Z,101137.56
2024-05-09T00:34:34.933Z,101142.78
2024-05-09T00:37:05.089Z,101129.47
2024-05-09T00:39:35.284Z,101137.25
2024-05-09T00:42:08.255Z,101139.84
2024-05-09T00:44:38.797Z,101138.03
2024-05-09T00:47:09.338Z,101136.97
2024-05-09T00:49:39.772Z,101144.81
2024-05-09T00:52:10.261Z,101138.56
2024-05-09T00:54:40.542Z,101137.63
2024-05-09T00:57:13.654Z,101130.66
2024-05-09T00:59:44.092Z,101127.13
2024-05-09T01:02:14.793Z,101134.00
2024-05-09T01:04:45.143Z,101138.31
2024-05-09T01:07:16.092Z,101125.19
2024-05-09T01:09:46.264Z,101130.38
2024-05-09T01:12:19.769Z,101139.03
2024-05-09T01:14:50.375Z,101135.44
2024-05-09T01:17:20.714Z,101137.97
2024-05-09T01:19:51.116Z,101128.38
2024-05-09T01:22:22.097Z,101127.41
2024-05-09T01:24:55.114Z,101131.81
2024-05-09T01:27:25.698Z,101122.91
2024-05-09T01:29:55.943Z,101135.97
2024-05-09T01:32:26.521Z,101130.66
2024-05-09T01:34:57.041Z,101130.66
2024-05-09T01:37:27.498Z,101122.75
2024-05-09T01:40:00.550Z,101128.88
2024-05-09T01:42:30.724Z,101121.75
2024-05-09T01:45:00.867Z,101119.94
2024-05-09T01:47:31.146Z,101124.28
2024-05-09T01:50:01.551Z,101121.59
2024-05-09T01:52:31.833Z,101128.56
2024-05-09T01:55:06.504Z,101126.69
2024-05-09T01:57:37.113Z,101128.34
2024-05-09T02:00:10.497Z,101114.34
2024-05-09T02:02:42.052Z,101121.28
2024-05-09T02:05:12.373Z,101116.81
2024-05-09T02:07:42.602Z,101116.81
2024-05-09T02:10:20.467Z,101107.19
2024-05-09T02:12:56.259Z,101111.47
2024-05-09T02:15:26.690Z,101109.59
2024-05-09T02:17:57.106Z,101114.72
2024-05-09T02:20:34.039Z,101118.19
2024-05-09T02:23:07.666Z,101110.19
2024-05-09T02:25:40.655Z,101112.72
2024-05-09T02:28:10.831Z,101109.19
2024-05-09T02:30:42.387Z,101117.75
2024-05-09T02:33:14.527Z,101114.22
2024-05-09T02:35:45.162Z,101114.22
2024-05-09T02:38:13.237Z,101110.63
2024-05-09T02:40:46.401Z,101110.63
2024-05-09T02:43:14.036Z,101107.00
2024-05-09T02:45:44.640Z,101111.31
2024-05-09T02:48:13.636Z,101110.28
2024-05-09T02:50:44.940Z,101109.38
2024-05-09T02:53:13.314Z,101111.03
2024-05-09T02:55:46.417Z,101117.09
2024-05-09T02:58:13.998Z,101126.53
2024-05-09T03:00:44.092Z,101118.59
2024-05-09T03:03:14.339Z,101124.63
2024-05-09T03:05:46.649Z,101114.94
2024-05-09T03:08:14.951Z,101119.25
2024-05-09T03:10:47.834Z,101117.41
2024-05-09T03:13:16.369Z,101119.00
2024-05-09T03:15:47.085Z,101117.22
2024-05-09T03:18:15.988Z,101115.44
2024-05-09T03:20:46.429Z,101123.09
2024-05-09T03:23:14.370Z,101113.50
2024-05-09T03:25:47.191Z,101116.94
2024-05-09T03:28:14.748Z,101118.56
2024-05-09T03:30:44.811Z,101111.56
2024-05-09T03:33:17.819Z,101108.03
2024-05-09T03:35:47.708Z,101112.25
2024-05-09T03:38:18.884Z,101117.47
2024-05-09T03:40:53.370Z,101102.66
2024-05-09T03:43:20.916Z,101112.06
2024-05-09T03:45:52.512Z,101115.56
2024-05-09T03:48:20.270Z,101113.69
2024-05-09T03:50:50.868Z,101105.78
2024-05-09T03:53:18.685Z,101105.75
2024-05-09T03:55:53.532Z,101107.47
2024-05-09T03:58:21.088Z,101112.50
2024-05-09T04:00:51.603Z,101107.25
2024-05-09T04:03:19.540Z,101120.28
2024-05-09T04:05:50.187Z,101109.78
2024-05-09T04:08:19.035Z,101115.81
2024-05-09T04:10:51.861Z,101118.34
2024-05-09T04:13:19.506Z,101117.44
2024-05-09T04:15:49.903Z,101127.88
2024-05-09T04:18:17.813Z,101111.28
2024-05-09T04:20:49.128Z,101114.72
2024-05-09T04:23:16.909Z,101117.22
2024-05-09T04:25:47.640Z,101115.41
2024-05-09T04:28:19.209Z,101106.69
2024-05-09T04:30:49.432Z,101115.34
2024-05-09T04:33:18.705Z,101117.88
2024-05-09T04:35:49.552Z,101117.81
2024-05-09T04:38:17.427Z,101117.81
2024-05-09T04:40:47.922Z,101114.31
2024-05-09T04:43:19.612Z,101115.19
2024-05-09T04:45:50.366Z,101126.41
2024-05-09T04:48:18.052Z,101121.19
2024-05-09T04:50:48.419Z,101118.50
2024-05-09T04:53:17.530Z,101125.50
2024-05-09T04:55:48.263Z,101122.81
2024-05-09T04:58:18.658Z,101124.53
2024-05-09T05:00:49.028Z,101128.91
2024-05-09T05:03:17.169Z,101130.63
2024-05-09T05:05:47.839Z,101120.13
2024-05-09T05:08:18.189Z,101129.72
2024-05-09T05:10:49.934Z,101121.91
2024-05-09T05:13:21.665Z,101128.91
2024-05-09T05:15:57.188Z,101127.13
2024-05-09T05:18:26.889Z,101127.13
2024-05-09T05:20:58.848Z,101133.22
2024-05-09T05:23:26.645Z,101131.53
2024-05-09T05:25:57.963Z,101128.91
2024-05-09T05:28:28.202Z,101128.91
2024-05-09T05:30:58.581Z,101129.72
2024-05-09T05:33:28.963Z,101116.69
2024-05-09T05:35:57.300Z,101118.50
2024-05-09T05:38:28.603Z,101119.38
2024-05-09T05:40:56.565Z,101125.50
2024-05-09T05:43:26.808Z,101135.91
2024-05-09T05:45:57.023Z,101119.47
2024-05-09T05:48:27.421Z,101127.28
2024-05-09T05:50:55.003Z,101122.94
2024-05-09T05:53:25.381Z,101125.63
2024-05-09T05:55:53.040Z,101124.81
2024-05-09T05:58:23.143Z,101125.78
2024-05-09T06:00:53.629Z,101131.91
2024-05-09T06:03:26.607Z,101132.88
2024-05-09T06:05:54.315Z,101137.16
2024-05-09T06:08:27.111Z,101139.97
2024-05-09T06:10:56.359Z,101137.34
2024-05-09T06:13:26.634Z,101136.53
2024-05-09T06:15:54.703Z,101138.28
2024-05-09T06:18:27.631Z,101131.44
2024-05-09T06:20:55.220Z,101128.84
2024-05-09T06:23:25.464Z,101126.41
2024-05-09T06:25:53.066Z,101127.25
2024-05-09T06:28:23.183Z,101124.81
2024-05-09T06:30:50.677Z,101124.91
2024-05-09T06:33:21.144Z,101132.75
2024-05-09T06:35:54.284Z,101134.63
2024-05-09T06:38:24.665Z,101127.63
2024-05-09T06:40:52.214Z,101126.72
2024-05-09T06:43:22.322Z,101132.03
2024-05-09T06:45:53.116Z,101130.22
2024-05-09T06:48:24.422Z,101123.22
2024-05-09T06:50:54.769Z,101126.53
2024-05-09T06:53:26.478Z,101119.44
2024-05-09T06:55:54.279Z,101128.16
2024-05-09T06:58:24.477Z,101129.00
2024-05-09T07:00:52.163Z,101134.34
2024-05-09T07:03:22.644Z,101131.81
2024-05-09T07:05:50.279Z,101136.22
2024-05-09T07:08:23.159Z,101135.44
2024-05-09T07:10:51.066Z,101131.06
2024-05-09T07:13:21.200Z,101136.25
2024-05-09T07:15:48.739Z,101131.88
2024-05-09T07:18:21.007Z,101129.34
2024-05-09T07:20:50.171Z,101136.41
2024-05-09T07:23:23.485Z,101137.38
2024-05-09T07:25:51.678Z,101137.38
2024-05-09T07:28:24.763Z,101138.34
2024-05-09T07:30:52.386Z,101133.00
2024-05-09T07:33:24.552Z,101131.25
2024-05-09T07:35:52.817Z,101136.47
2024-05-09T07:38:25.995Z,101134.03
2024-05-09T07:40:53.643Z,101128.81
2024-05-09T07:43:23.861Z,101137.66
2024-05-09T07:45:54.371Z,101135.13
2024-05-09T07:50:00.249Z,101130.94
2024-05-09T07:53:53.546Z,101128.88
2024-05-09T07:56:24.509Z,101128.22
2024-05-09T07:58:56.404Z,101131.09
2024-05-09T08:01:26.485Z,101135.75
2024-05-09T08:03:57.534Z,101129.16
2024-05-09T08:06:26.157Z,101122.53
2024-05-09T08:09:02.795Z,101124.63
2024-05-09T08:11:33.076Z,101126.69
2024-05-09T08:14:03.250Z,101129.66
2024-05-09T08:16:30.835Z,101129.91
2024-05-09T08:19:01.147Z,101126.69
2024-05-09T08:21:29.714Z,101120.84
2024-05-09T08:24:02.888Z,101123.72
2024-05-09T08:26:31.023Z,101121.38
2024-05-09T08:29:01.130Z,101121.63
2024-05-09T08:31:29.274Z,101121.78
2024-05-09T08:33:59.918Z,101123.75
2024-05-09T08:36:27.694Z,101128.25
2024-05-09T08:38:58.696Z,101119.78
2024-05-09T08:41:30.126Z,101125.38
2024-05-09T08:44:00.399Z,101124.97
2024-05-09T08:46:30.607Z,101120.09
2024-05-09T08:49:02.590Z,101115.19
2024-05-09T08:51:30.338Z,101114.72
2024-05-09T08:54:00.676Z,101111.59
2024-05-09T08:56:35.498Z,101105.88
2024-05-09T08:59:09.871Z,101103.50
2024-05-09T09:01:40.123Z,101101.22
2024-05-09T09:04:13.278Z,101107.53
2024-05-09T09:06:41.296Z,101102.44
2024-05-09T09:09:14.143Z,101098.34
2024-05-09T09:11:44.370Z,101095.88
2024-05-09T09:14:14.912Z,101103.91
2024-05-09T09:16:42.353Z,101097.13
2024-05-09T09:19:12.580Z,101099.03
2024-05-09T09:21:40.128Z,101102.69
2024-05-09T09:24:10.838Z,101101.13
2024-05-09T09:26:38.319Z,101097.78
2024-05-09T09:29:11.074Z,101097.16
2024-05-09T09:31:39.365Z,101099.16
2024-05-09T09:34:12.251Z,101099.50
2024-05-09T09:36:42.486Z,101097.03
2024-05-09T09:39:13.836Z,101097.19
2024-05-09T09:41:44.415Z,101087.00
2024-05-09T09:44:18.834Z,101089.06
2024-05-09T09:46:47.577Z,101091.03
2024-05-09T09:49:19.786Z,101084.16
2024-05-09T09:51:48.474Z,101084.44
2024-05-09T09:54:18.865Z,101083.00
2024-05-09T09:56:48.607Z,101085.06
2024-05-09T09:59:22.538Z,101078.31
2024-05-09T10:01:50.348Z,101076.84
2024-05-09T10:04:21.250Z,101076.22
2024-05-09T10:06:53.339Z,101075.66
2024-05-09T10:09:24.539Z,101065.41
2024-05-09T10:11:59.376Z,101072.63
2024-05-09T10:14:34.586Z,101064.94
2024-05-09T10:17:05.563Z,101063.38
2024-05-09T10:19:35.770Z,101061.03
2024-05-09T10:22:04.445Z,101063.94
2024-05-09T10:24:50.650Z,101058.03
2024-05-09T10:27:26.979Z,101048.59
2024-05-09T10:30:01.254Z,101047.94
2024-05-09T10:32:30.452Z,101050.75
2024-05-09T10:35:05.024Z,101038.75
2024-05-09T10:37:33.484Z,101038.06
2024-05-09T10:40:09.425Z,101038.34
2024-05-09T10:42:42.076Z,101043.03
2024-05-09T10:45:15.157Z,101044.13
2024-05-09T10:47:43.424Z,101034.63
2024-05-09T10:50:22.234Z,101036.44
2024-05-09T10:52:55.758Z,101028.56
2024-05-09T10:55:26.083Z,101028.56
2024-05-09T10:57:53.755Z,101017.25
2024-05-09T11:00:36.129Z,101018.22
2024-05-09T11:03:05.412Z,101014.75
2024-05-09T11:05:37.014Z,101018.28
2024-05-09T11:08:05.781Z,101008.66
2024-05-09T11:10:36.124Z,101011.28
2024-05-09T11:13:03.718Z,101019.06
2024-05-09T11:15:44.110Z,101019.94
2024-05-09T11:18:24.642Z,101019.06
2024-05-09T11:20:57.004Z,101014.75
2024-05-09T11:23:26.425Z,101014.66
2024-05-09T11:25:59.050Z,101004.97
2024-05-09T11:28:29.068Z,100999.78
2024-05-09T11:31:11.821Z,101006.03
2024-05-09T11:33:42.206Z,100997.34
2024-05-09T11:36:13.934Z,100997.50
2024-05-09T11:38:41.708Z,100998.44
2024-05-09T11:41:11.963Z,100982.81
2024-05-09T11:43:39.538Z,100996.16
2024-05-09T11:46:12.492Z,100982.34
2024-05-09T11:48:43.188Z,100972.72
2024-05-09T11:51:10.912Z,100978.91
2024-05-09T11:53:41.092Z,100973.66
2024-05-09T11:56:08.704Z,100969.25
2024-05-09T11:58:41.559Z,100962.28
2024-05-09T12:01:11.814Z,100962.34
2024-05-09T12:03:42.483Z,100956.28
2024-05-09T12:06:10.101Z,100958.16
2024-05-09T12:08:40.728Z,100960.03
2024-05-09T12:11:08.375Z,100960.16
2024-05-09T12:13:38.800Z,100954.13
2024-05-09T12:16:07.166Z,100953.34
2024-05-09T12:18:40.310Z,100942.84
2024-05-09T12:21:08.216Z,100940.31
2024-05-09T12:23:38.421Z,100943.06
2024-05-09T12:26:05.971Z,100945.88
2024-05-09T12:28:36.602Z,100938.13
2024-05-09T12:31:04.661Z,100936.56
2024-05-09T12:33:34.896Z,100943.69
2024-05-09T12:36:05.512Z,100942.09
2024-05-09T12:38:35.617Z,100929.97
2024-05-09T12:41:03.137Z,100927.47
2024-05-09T12:43:33.656Z,100921.41
2024-05-09T12:46:03.363Z,100930.22
2024-05-09T12:48:33.830Z,100930.22
2024-05-09T12:51:01.605Z,100928.44
2024-05-09T12:53:34.670Z,100921.34
2024-05-09T12:56:04.303Z,100918.69
2024-05-09T12:58:35.876Z,100920.41
2024-05-09T13:01:03.517Z,100924.75
2024-05-09T13:03:34.044Z,100909.78
2024-05-09T13:06:02.085Z,100910.59
2024-05-09T13:08:35.186Z,100907.03
2024-05-09T13:11:02.740Z,100903.41
2024-05-09T13:13:33.162Z,100917.38
2024-05-09T13:16:00.779Z,100901.53
2024-05-09T13:18:31.054Z,100908.59
2024-05-09T13:20:58.616Z,100898.22
2024-05-09T13:23:28.730Z,100900.97
2024-05-09T13:25:58.899Z,100891.38
2024-05-09T13:28:31.901Z,100893.25
2024-05-09T13:30:59.583Z,100891.56
2024-05-09T13:33:30.417Z,100883.72
2024-05-09T13:35:58.036Z,100886.44
2024-05-09T13:38:28.857Z,100883.03
2024-05-09T13:40:59.018Z,100882.34
2024-05-09T13:43:29.681Z,100876.28
2024-05-09T13:45:57.421Z,100887.88
2024-05-09T13:48:28.287Z,100874.84
2024-05-09T13:50:56.704Z,100867.94
2024-05-09T13:53:27.661Z,100863.63
2024-05-09T13:55:55.375Z,100861.03
2024-05-09T13:58:28.271Z,100858.44
2024-05-09T14:00:56.028Z,100855.78
2024-05-09T14:03:27.030Z,100848.84
2024-05-09T14:05:54.847Z,100852.47
2024-05-09T14:08:25.628Z,100856.94
2024-05-09T14:10:53.783Z,100849.03
2024-05-09T14:13:24.158Z,100846.38
2024-05-09T14:15:54.698Z,100845.50
2024-05-09T14:18:25.380Z,100838.47
2024-05-09T14:20:53.037Z,100837.66
2024-05-09T14:23:23.435Z,100838.56
2024-05-09T14:25:53.097Z,100838.56
2024-05-09T14:28:26.264Z,100831.53
2024-05-09T14:30:57.211Z,100831.56
2024-05-09T14:33:28.168Z,100839.47
2024-05-09T14:35:56.176Z,100828.94
2024-05-09T14:38:27.238Z,100835.06
2024-05-09T14:40:54.923Z,100831.53
2024-05-09T14:43:25.382Z,100821.00
2024-05-09T14:45:53.592Z,100821.03
2024-05-09T14:48:26.965Z,100814.91
2024-05-09T14:50:54.771Z,100820.16
2024-05-09T14:53:26.566Z,100810.44
2024-05-09T14:55:54.587Z,100806.03
2024-05-09T14:58:24.862Z,100806.84
2024-05-09T15:00:52.747Z,100806.84
2024-05-09T15:03:27.267Z,100804.19
2024-05-09T15:05:54.947Z,100798.88
2024-05-09T15:08:25.607Z,100804.13
2024-05-09T15:10:53.423Z,100803.97
2024-05-09T15:13:24.230Z,100796.91
2024-05-09T15:15:52.197Z,100791.66
2024-05-09T15:18:22.930Z,100792.47
2024-05-09T15:20:53.488Z,100790.72
2024-05-09T15:23:24.314Z,100786.28
2024-05-09T15:25:51.904Z,100782.75
2024-05-09T15:28:22.442Z,100785.41
2024-05-09T15:30:50.032Z,100778.34
2024-05-09T15:33:20.865Z,100786.28
2024-05-09T15:35:48.513Z,100785.41
2024-05-09T15:38:21.326Z,100778.38
2024-05-09T15:40:49.086Z,100773.97
2024-05-09T15:43:19.553Z,100768.66
2024-05-09T15:45:47.711Z,100778.28
2024-05-09T15:48:18.572Z,100773.00
2024-05-09T15:50:46.392Z,100769.47
2024-05-09T15:53:20.463Z,100774.72
2024-05-09T15:55:47.950Z,100773.84
2024-05-09T15:58:18.749Z,100772.06
2024-05-09T16:00:48.684Z,100767.63
2024-05-09T16:03:21.329Z,100774.63
2024-05-09T16:05:50.606Z,100761.41
2024-05-09T16:08:23.473Z,100760.50
2024-05-09T16:10:52.130Z,100758.72
2024-05-09T16:13:22.849Z,100753.44
2024-05-09T16:15:51.088Z,100762.16
2024-05-09T16:18:21.539Z,100761.22
2024-05-09T16:20:50.328Z,100752.41
2024-05-09T16:23:23.708Z,100754.13
2024-05-09T16:25:51.900Z,100758.41
2024-05-09T16:28:23.126Z,100753.94
2024-05-09T16:30:52.428Z,100752.16
2024-05-09T16:33:23.963Z,100752.06
2024-05-09T16:35:51.738Z,100752.94
2024-05-09T16:38:25.095Z,100749.41
2024-05-09T16:40:52.925Z,100748.53
2024-05-09T16:43:24.251Z,100748.47
2024-05-09T16:45:51.932Z,100744.09
2024-05-09T16:48:22.801Z,100744.06
2024-05-09T16:50:50.337Z,100737.91
2024-05-09T16:53:25.688Z,100739.66
2024-05-09T16:55:53.453Z,100737.00
2024-05-09T16:58:23.867Z,100738.78
2024-05-09T17:00:51.691Z,100738.78
2024-05-09T17:03:22.411Z,100736.97
2024-05-09T17:05:50.769Z,100743.09
2024-05-09T17:08:21.139Z,100730.75
2024-05-09T17:10:51.695Z,100736.00
2024-05-09T17:13:22.806Z,100744.72
2024-05-09T17:15:53.584Z,100744.66
2024-05-09T17:18:24.336Z,100745.47
2024-05-09T17:20:52.468Z,100736.66
2024-05-09T17:23:22.681Z,100734.88
2024-05-09T17:25:52.960Z,100738.44
2024-05-09T17:28:23.516Z,100735.78
2024-05-09T17:30:53.795Z,100734.91
2024-05-09T17:33:21.541Z,100737.53
2024-05-09T17:35:53.111Z,100728.75
2024-05-09T17:38:22.972Z,100736.63
2024-05-09T17:40:56.402Z,100734.00
2024-05-09T17:43:24.534Z,100728.69
2024-05-09T17:45:54.884Z,100723.44
2024-05-09T17:48:22.774Z,100731.31
2024-05-09T17:50:54.084Z,100739.22
2024-05-09T17:53:21.841Z,100722.50
2024-05-09T17:55:53.917Z,100735.69
2024-05-09T17:58:24.374Z,100732.16
2024-05-09T18:00:55.321Z,100727.72
2024-05-09T18:03:23.504Z,100725.97
2024-05-09T18:05:54.875Z,100726.84
2024-05-09T18:08:22.555Z,100727.69
2024-05-09T18:10:55.235Z,100724.19
2024-05-09T18:13:26.260Z,100737.34
2024-05-09T18:15:57.101Z,100735.56
2024-05-09T18:18:24.842Z,100734.63
2024-05-09T18:20:55.221Z,100740.78
2024-05-09T18:23:23.217Z,100738.94
2024-05-09T18:25:54.717Z,100738.94
2024-05-09T18:28:25.281Z,100737.06
2024-05-09T18:30:55.832Z,100737.88
2024-05-09T18:33:24.488Z,100739.56
2024-05-09T18:35:54.781Z,100743.84
2024-05-09T18:38:26.697Z,100742.06
2024-05-09T18:40:57.404Z,100740.25
2024-05-09T18:43:38.442Z,100742.00
2024-05-09T18:46:15.124Z,100740.19
2024-05-09T18:48:42.843Z,100746.34
2024-05-09T18:51:14.549Z,100754.19
2024-05-09T18:53:43.362Z,100755.94
2024-05-09T18:56:15.179Z,100758.56
2024-05-09T18:58:46.809Z,100760.34
2024-05-09T19:01:17.129Z,100763.81
2024-05-09T19:03:44.893Z,100766.44
2024-05-09T19:06:15.351Z,100770.88
2024-05-09T19:08:42.910Z,100759.44
2024-05-09T19:11:13.029Z,100762.13
2024-05-09T19:13:40.614Z,100765.63
2024-05-09T19:16:14.097Z,100769.16
2024-05-09T19:18:42.322Z,100772.63
2024-05-09T19:21:14.309Z,100773.50
2024-05-09T19:23:47.162Z,100777.91
2024-05-09T19:26:22.514Z,100775.22
2024-05-09T19:28:50.187Z,100780.50
2024-05-09T19:31:23.102Z,100777.88
2024-05-09T19:33:50.782Z,100772.53
2024-05-09T19:36:21.598Z,100774.25
2024-05-09T19:38:51.373Z,100784.78
2024-05-09T19:41:21.530Z,100781.22
2024-05-09T19:43:49.095Z,100777.66
2024-05-09T19:46:23.627Z,100779.41
2024-05-09T19:48:51.654Z,100779.34
2024-05-09T19:51:22.080Z,100782.81
2024-05-09T19:53:50.681Z,100787.19
2024-05-09T19:56:20.846Z,100786.25
2024-05-09T19:58:48.426Z,100790.63
2024-05-09T20:01:19.039Z,100785.31
2024-05-09T20:03:49.538Z,100778.28
2024-05-09T20:06:24.303Z,100787.03
2024-05-09T20:08:53.639Z,100793.97
2024-05-09T20:11:24.085Z,100782.50
2024-05-09T20:13:51.839Z,100795.63
2024-05-09T20:16:22.425Z,100795.50
2024-05-09T20:18:52.894Z,100795.47
2024-05-09T20:21:23.984Z,100797.22
2024-05-09T20:23:51.453Z,100809.44
2024-05-09T20:26:21.585Z,100803.22
2024-05-09T20:28:49.172Z,100804.06
2024-05-09T20:31:24.010Z,100797.88
2024-05-09T20:33:54.726Z,100800.47
2024-05-09T20:36:25.064Z,100795.13
2024-05-09T20:38:52.611Z,100800.38
2024-05-09T20:41:22.961Z,100795.97
2024-05-09T20:43:50.519Z,100799.50
2024-05-09T20:46:20.821Z,100800.34
2024-05-09T20:48:48.722Z,100803.72
2024-05-09T20:51:21.632Z,100798.34
2024-05-09T20:53:49.202Z,100799.94
2024-05-09T20:56:19.525Z,100805.91
2024-05-09T20:58:47.176Z,100805.84
2024-05-09T21:01:17.769Z,100798.69
2024-05-09T21:03:45.377Z,100805.56
2024-05-09T21:06:15.636Z,100803.66
2024-05-09T21:08:46.042Z,100803.56
2024-05-09T21:11:16.236Z,100806.03
2024-05-09T21:13:43.760Z,100797.13
2024-05-09T21:16:13.934Z,100803.97
2024-05-09T21:18:41.676Z,100808.22
2024-05-09T21:21:11.854Z,100808.13
2024-05-09T21:23:39.348Z,100809.72
2024-05-09T21:26:13.610Z,100807.88
2024-05-09T21:28:44.086Z,100804.19
2024-05-09T21:31:14.376Z,100811.97
2024-05-09T21:33:42.206Z,100805.78
2024-05-09T21:36:12.711Z,100809.25
2024-05-09T21:38:40.983Z,100808.28
2024-05-09T21:41:14.098Z,100814.34
2024-05-09T21:43:41.685Z,100814.28
2024-05-09T21:46:11.952Z,100802.91
2024-05-09T21:48:39.777Z,100802.97
2024-05-09T21:51:16.525Z,100805.59
2024-05-09T21:53:44.173Z,100816.03
2024-05-09T21:56:16.938Z,100805.53
2024-05-09T21:58:44.477Z,100801.13
2024-05-09T22:01:14.802Z,100802.84
2024-05-09T22:03:42.558Z,100804.53
2024-05-09T22:06:13.067Z,100795.72
2024-05-09T22:08:40.518Z,100800.19
2024-05-09T22:11:11.202Z,100795.72
2024-05-09T22:13:41.553Z,100805.44
2024-05-09T22:16:12.074Z,100793.97
2024-05-09T22:18:40.108Z,100792.19
2024-05-09T22:21:10.868Z,100802.75
2024-05-09T22:23:38.412Z,100800.13
2024-05-09T22:26:09.081Z,100800.97
2024-05-09T22:28:36.806Z,100811.56
2024-05-09T22:31:11.977Z,100807.22
2024-05-09T22:33:40.057Z,100817.69
2024-05-09T22:36:11.367Z,100814.13
2024-05-09T22:38:39.274Z,100806.22
2024-05-09T22:41:10.296Z,100799.25
2024-05-09T22:43:38.278Z,100809.78
2024-05-09T22:46:11.516Z,100816.81
2024-05-09T22:48:39.488Z,100816.72
2024-05-09T22:51:10.105Z,100815.84
2024-05-09T22:53:37.674Z,100806.22
2024-05-09T22:56:08.805Z,100806.22
2024-05-09T22:58:36.332Z,100807.03
2024-05-09T23:01:07.439Z,100807.03
2024-05-09T23:03:39.625Z,100807.94
2024-05-09T23:06:10.772Z,100806.09
2024-05-09T23:08:38.323Z,100796.47
2024-05-09T23:11:08.857Z,100792.94
2024-05-09T23:13:36.825Z,100797.28
2024-05-09T23:16:08.352Z,100795.50
2024-05-09T23:18:38.719Z,100798.97
2024-05-09T23:21:09.417Z,100784.06
2024-05-09T23:23:36.980Z,100792.75
2024-05-09T23:26:07.433Z,100792.66
2024-05-09T23:28:35.290Z,100794.38
2024-05-09T23:31:05.489Z,100795.22
2024-05-09T23:33:33.380Z,100794.28
2024-05-09T23:36:06.747Z,100788.13
2024-05-09T23:38:34.376Z,100795.06
2024-05-09T23:41:04.606Z,100790.59
2024-05-09T23:43:32.247Z,100793.22
2024-05-09T23:46:02.539Z,100781.75
2024-05-09T23:48:30.370Z,100789.59
2024-05-09T23:51:00.779Z,100779.94
2024-05-09T23:53:30.958Z,100772.88
2024-05-09T23:56:01.417Z,100774.56
2024-05-09T23:58:29.394Z,100773.63
